createdAt,value
2022-11-16T00:01:28.081Z,99642.13
2022-11-16T00:03:56.948Z,99640.13
2022-11-16T00:06:24.204Z,99629.53
2022-11-16T00:09:13.536Z,99623.50
2022-11-16T00:11:40.749Z,99620.78
2022-11-16T00:14:07.809Z,99622.75
2022-11-16T00:16:34.694Z,99621.00
2022-11-16T00:19:03.380Z,99622.47
2022-11-16T00:21:30.319Z,99624.34
2022-11-16T00:23:57.710Z,99618.56
2022-11-16T00:26:24.466Z,99611.03
2022-11-16T00:28:53.820Z,99607.25
2022-11-16T00:31:21.443Z,99595.13
2022-11-16T00:33:48.360Z,99594.03
2022-11-16T00:36:15.369Z,99598.91
2022-11-16T00:38:42.711Z,99598.78
2022-11-16T00:41:12.030Z,99587.31
2022-11-16T00:43:38.745Z,99584.31
2022-11-16T00:46:05.745Z,99578.50
2022-11-16T00:48:32.727Z,99573.44
2022-11-16T00:50:59.498Z,99573.53
2022-11-16T00:53:26.268Z,99579.78
2022-11-16T00:55:52.845Z,99572.88
2022-11-16T00:58:20.658Z,99573.91
2022-11-16T01:00:53.409Z,99569.31
2022-11-16T01:03:20.038Z,99568.47
2022-11-16T01:05:46.654Z,99573.53
2022-11-16T01:08:14.085Z,99566.75
2022-11-16T01:10:41.372Z,99571.03
2022-11-16T01:13:11.273Z,99569.91
2022-11-16T01:15:38.012Z,99573.16
2022-11-16T01:18:04.594Z,99574.78
2022-11-16T01:20:31.223Z,99575.78
2022-11-16T01:22:57.849Z,99571.13
2022-11-16T01:25:24.530Z,99566.69
2022-11-16T01:27:51.243Z,99562.28
2022-11-16T01:30:24.996Z,99561.59
2022-11-16T01:33:04.684Z,99563.75
2022-11-16T01:35:31.390Z,99566.44
2022-11-16T01:37:58.012Z,99571.53
2022-11-16T01:40:27.246Z,99564.19
2022-11-16T01:42:53.897Z,99561.31
2022-11-16T01:45:34.747Z,99553.06
2022-11-16T01:48:02.746Z,99556.22
2022-11-16T01:50:32.658Z,99551.19
2022-11-16T01:53:03.070Z,99548.88
2022-11-16T01:55:37.710Z,99545.44
2022-11-16T01:58:18.169Z,99557.97
2022-11-16T02:00:49.187Z,99553.31
2022-11-16T02:03:32.793Z,99553.91
2022-11-16T02:06:12.206Z,99546.16
2022-11-16T02:09:14.556Z,99549.19
2022-11-16T02:12:29.133Z,99549.22
2022-11-16T02:18:03.052Z,99545.31
2022-11-16T02:20:51.498Z,99549.22
2022-11-16T02:23:39.591Z,99557.19
2022-11-16T02:26:24.432Z,99545.75
2022-11-16T02:29:21.593Z,99551.25
2022-11-16T02:31:54.071Z,99543.09
2022-11-16T02:34:23.742Z,99544.63
2022-11-16T02:36:54.749Z,99540.69
2022-11-16T02:39:27.232Z,99536.53
2022-11-16T02:41:57.708Z,99531.81
2022-11-16T02:44:31.699Z,99529.34
2022-11-16T02:47:05.007Z,99534.91
2022-11-16T02:49:36.834Z,99530.63
2022-11-16T02:52:04.827Z,99529.28
2022-11-16T02:54:31.859Z,99525.72
2022-11-16T02:57:04.525Z,99516.84
2022-11-16T02:59:50.536Z,99518.38
2022-11-16T03:03:16.619Z,99520.41
2022-11-16T03:06:08.702Z,99523.78
2022-11-16T03:08:40.077Z,99527.88
2022-11-16T03:11:30.345Z,99525.19
2022-11-16T03:14:06.210Z,99524.69
2022-11-16T03:16:43.602Z,99533.72
2022-11-16T03:19:14.223Z,99534.22
2022-11-16T03:22:00.407Z,99547.31
2022-11-16T03:24:27.770Z,99540.31
2022-11-16T03:27:19.118Z,99551.53
2022-11-16T03:30:01.681Z,99551.38
2022-11-16T03:32:50.965Z,99549.50
2022-11-16T03:35:26.951Z,99537.09
2022-11-16T03:37:57.436Z,99542.31
2022-11-16T03:40:28.549Z,99548.38
2022-11-16T03:42:57.923Z,99548.63
2022-11-16T03:45:24.724Z,99552.69
2022-11-16T03:47:53.170Z,99551.97
2022-11-16T03:50:20.549Z,99556.16
2022-11-16T03:52:47.156Z,99557.47
2022-11-16T03:55:14.550Z,99556.63
2022-11-16T03:57:43.105Z,99564.97
2022-11-16T04:00:10.807Z,99562.53
2022-11-16T04:02:40.250Z,99558.53
2022-11-16T04:05:27.811Z,99559.84
2022-11-16T04:08:13.094Z,99553.16
2022-11-16T04:10:58.231Z,99553.88
2022-11-16T04:13:48.756Z,99556.91
2022-11-16T04:16:34.765Z,99554.69
2022-11-16T04:19:23.320Z,99557.13
2022-11-16T04:22:20.113Z,99548.06
2022-11-16T04:24:51.672Z,99547.84
2022-11-16T04:27:44.653Z,99552.56
2022-11-16T04:30:11.980Z,99548.53
2022-11-16T04:32:57.506Z,99549.91
2022-11-16T04:35:42.947Z,99549.59
2022-11-16T04:38:10.528Z,99539.53
2022-11-16T04:40:37.359Z,99545.31
2022-11-16T04:43:04.855Z,99546.13
2022-11-16T04:45:56.451Z,99543.59
2022-11-16T04:48:27.908Z,99543.56
2022-11-16T04:50:55.324Z,99541.38
2022-11-16T04:53:27.072Z,99539.38
2022-11-16T04:56:04.655Z,99543.78
2022-11-16T04:58:32.832Z,99548.38
2022-11-16T05:01:00.192Z,99536.81
2022-11-16T05:03:27.871Z,99540.59
2022-11-16T05:05:55.208Z,99534.38
2022-11-16T05:08:22.353Z,99538.75
2022-11-16T05:10:51.413Z,99540.47
2022-11-16T05:13:18.724Z,99532.84
2022-11-16T05:15:46.349Z,99539.38
2022-11-16T05:18:13.144Z,99538.53
2022-11-16T05:20:58.886Z,99538.16
2022-11-16T05:23:44.871Z,99544.34
2022-11-16T05:26:14.205Z,99540.16
2022-11-16T05:28:41.343Z,99536.06
2022-11-16T05:31:10.397Z,99532.22
2022-11-16T05:33:37.106Z,99528.16
2022-11-16T05:36:04.430Z,99535.34
2022-11-16T05:38:31.424Z,99541.72
2022-11-16T05:41:00.017Z,99539.00
2022-11-16T05:43:29.480Z,99538.75
2022-11-16T05:46:04.606Z,99536.13
2022-11-16T05:48:32.071Z,99533.19
2022-11-16T05:51:00.266Z,99535.59
2022-11-16T05:53:30.282Z,99532.56
2022-11-16T05:55:58.440Z,99531.69
2022-11-16T05:58:25.109Z,99527.09
2022-11-16T06:00:51.821Z,99528.00
2022-11-16T06:03:19.918Z,99525.00
2022-11-16T06:05:46.661Z,99529.84
2022-11-16T06:08:15.951Z,99540.78
2022-11-16T06:10:42.578Z,99552.88
2022-11-16T06:13:09.540Z,99548.88
2022-11-16T06:15:39.884Z,99545.22
2022-11-16T06:18:09.073Z,99549.38
2022-11-16T06:20:38.665Z,99552.00
2022-11-16T06:23:06.566Z,99545.59
2022-11-16T06:25:33.555Z,99553.25
2022-11-16T06:28:05.237Z,99549.00
2022-11-16T06:30:33.783Z,99548.78
2022-11-16T06:33:02.400Z,99554.53
2022-11-16T06:35:29.305Z,99551.69
2022-11-16T06:37:58.269Z,99562.66
2022-11-16T06:40:25.771Z,99560.53
2022-11-16T06:42:52.546Z,99561.41
2022-11-16T06:45:19.596Z,99559.88
2022-11-16T06:47:50.633Z,99565.22
2022-11-16T06:50:19.276Z,99568.94
2022-11-16T06:52:47.347Z,99565.31
2022-11-16T06:55:15.761Z,99564.69
2022-11-16T06:57:42.659Z,99564.63
2022-11-16T07:00:11.061Z,99561.50
2022-11-16T07:02:38.821Z,99556.53
2022-11-16T07:05:08.301Z,99555.41
2022-11-16T07:07:35.173Z,99558.03
2022-11-16T07:10:02.475Z,99556.41
2022-11-16T07:12:30.600Z,99561.56
2022-11-16T07:14:58.319Z,99561.44
2022-11-16T07:17:25.881Z,99554.19
2022-11-16T07:19:53.135Z,99561.00
2022-11-16T07:22:19.965Z,99558.78
2022-11-16T07:24:48.584Z,99562.47
2022-11-16T07:27:15.214Z,99561.25
2022-11-16T07:29:45.341Z,99557.34
2022-11-16T07:32:33.729Z,99554.53
2022-11-16T07:35:23.185Z,99564.13
2022-11-16T07:37:50.400Z,99561.50
2022-11-16T07:40:17.133Z,99574.44
2022-11-16T07:42:45.832Z,99559.38
2022-11-16T07:45:31.146Z,99559.63
2022-11-16T07:48:03.833Z,99557.19
2022-11-16T07:50:50.408Z,99560.69
2022-11-16T07:53:19.739Z,99560.59
2022-11-16T07:55:53.138Z,99553.34
2022-11-16T07:58:21.273Z,99560.09
2022-11-16T08:00:49.100Z,99553.09
2022-11-16T08:03:20.445Z,99554.47
2022-11-16T08:05:59.340Z,99561.97
2022-11-16T08:08:26.022Z,99560.25
2022-11-16T08:10:52.697Z,99565.25
2022-11-16T08:13:19.300Z,99556.34
2022-11-16T08:15:47.900Z,99570.13
2022-11-16T08:18:14.488Z,99570.84
2022-11-16T08:20:41.021Z,99571.84
2022-11-16T08:23:07.702Z,99566.75
2022-11-16T08:25:35.621Z,99563.97
2022-11-16T08:28:02.515Z,99570.97
2022-11-16T08:30:30.242Z,99570.44
2022-11-16T08:32:57.677Z,99573.97
2022-11-16T08:35:25.429Z,99575.91
2022-11-16T08:37:52.364Z,99570.44
2022-11-16T08:40:19.020Z,99576.06
2022-11-16T08:42:47.192Z,99573.47
2022-11-16T08:45:14.321Z,99574.00
2022-11-16T08:47:41.733Z,99575.38
2022-11-16T08:50:08.987Z,99571.13
2022-11-16T08:52:35.680Z,99576.09
2022-11-16T08:55:04.551Z,99570.78
2022-11-16T08:57:32.194Z,99567.28
2022-11-16T09:00:04.801Z,99564.41
2022-11-16T09:02:31.613Z,99572.94
2022-11-16T09:04:58.171Z,99567.69
2022-11-16T09:07:25.047Z,99570.28
2022-11-16T09:09:51.609Z,99567.00
2022-11-16T09:12:18.315Z,99566.44
2022-11-16T09:14:44.933Z,99569.97
2022-11-16T09:17:11.688Z,99570.13
2022-11-16T09:19:38.212Z,99573.09
2022-11-16T09:22:05.048Z,99571.13
2022-11-16T09:24:31.578Z,99578.78
2022-11-16T09:27:04.142Z,99572.13
2022-11-16T09:29:31.140Z,99565.47
2022-11-16T09:31:58.447Z,99575.22
2022-11-16T09:34:25.457Z,99564.34
2022-11-16T09:36:52.409Z,99577.16
2022-11-16T09:39:30.731Z,99578.75
2022-11-16T09:42:04.319Z,99577.59
2022-11-16T09:44:55.880Z,99574.88
2022-11-16T09:47:38.945Z,99577.16
2022-11-16T09:50:08.362Z,99579.16
2022-11-16T09:52:38.889Z,99578.38
2022-11-16T09:55:23.750Z,99575.50
2022-11-16T09:57:53.965Z,99575.03
2022-11-16T10:00:23.693Z,99575.19
2022-11-16T10:03:02.230Z,99579.69
2022-11-16T10:05:44.286Z,99579.03
2022-11-16T10:08:18.186Z,99584.31
2022-11-16T10:10:52.965Z,99578.06
2022-11-16T10:14:10.318Z,99571.88
2022-11-16T10:16:45.775Z,99571.38
2022-11-16T10:19:27.768Z,99568.69
2022-11-16T10:22:16.013Z,99567.59
2022-11-16T10:24:47.854Z,99566.50
2022-11-16T10:27:44.492Z,99559.69
2022-11-16T10:30:19.990Z,99560.88
2022-11-16T10:32:59.587Z,99555.00
2022-11-16T10:35:29.735Z,99562.66
2022-11-16T10:37:59.477Z,99560.63
2022-11-16T10:40:29.380Z,99561.28
2022-11-16T10:43:01.446Z,99557.72
2022-11-16T10:45:52.316Z,99565.09
2022-11-16T10:48:21.912Z,99566.38
2022-11-16T10:50:51.625Z,99555.78
2022-11-16T10:53:32.563Z,99545.66
2022-11-16T10:56:23.796Z,99541.91
2022-11-16T10:59:05.598Z,99549.25
2022-11-16T11:01:38.582Z,99544.31
2022-11-16T11:04:23.599Z,99538.22
2022-11-16T11:07:30.216Z,99543.25
2022-11-16T11:09:56.925Z,99537.38
2022-11-16T11:12:40.616Z,99534.81
2022-11-16T11:15:27.143Z,99528.53
2022-11-16T11:18:15.537Z,99528.34
2022-11-16T11:20:45.630Z,99527.88
2022-11-16T11:23:19.296Z,99528.06
2022-11-16T11:26:00.279Z,99537.94
2022-11-16T11:28:33.757Z,99539.03
2022-11-16T11:31:22.575Z,99540.91
2022-11-16T11:33:53.738Z,99532.50
2022-11-16T11:36:49.264Z,99537.88
2022-11-16T11:39:18.993Z,99535.78
2022-11-16T11:42:00.096Z,99546.34
2022-11-16T11:44:37.449Z,99545.91
2022-11-16T11:50:31.425Z,99542.06
2022-11-16T11:53:02.918Z,99533.91
2022-11-16T11:55:29.753Z,99531.91
2022-11-16T11:57:57.606Z,99534.72
2022-11-16T12:00:26.167Z,99529.16
2022-11-16T12:03:25.032Z,99526.38
2022-11-16T12:06:06.376Z,99524.38
2022-11-16T12:08:39.322Z,99520.94
2022-11-16T12:11:27.657Z,99526.88
2022-11-16T12:14:23.337Z,99524.63
2022-11-16T12:17:07.457Z,99530.84
2022-11-16T12:19:44.484Z,99535.97
2022-11-16T12:22:29.256Z,99526.19
2022-11-16T12:25:30.598Z,99531.94
2022-11-16T12:28:24.753Z,99533.72
2022-11-16T12:30:57.013Z,99529.09
2022-11-16T12:33:28.680Z,99523.97
2022-11-16T12:36:08.070Z,99528.16
2022-11-16T12:38:56.579Z,99523.97
2022-11-16T12:41:26.167Z,99518.94
2022-11-16T12:44:04.053Z,99524.19
2022-11-16T12:46:45.629Z,99511.59
2022-11-16T12:49:15.022Z,99512.81
2022-11-16T12:52:03.061Z,99514.06
2022-11-16T12:55:04.216Z,99515.69
2022-11-16T12:57:47.147Z,99529.41
2022-11-16T13:00:20.076Z,99522.72
2022-11-16T13:03:10.837Z,99525.81
2022-11-16T13:05:40.580Z,99520.28
2022-11-16T13:08:53.495Z,99520.16
2022-11-16T13:11:30.281Z,99515.91
2022-11-16T13:14:01.473Z,99522.22
2022-11-16T13:16:29.244Z,99519.59
2022-11-16T13:18:58.094Z,99518.38
2022-11-16T13:21:24.649Z,99518.09
2022-11-16T13:24:06.646Z,99517.13
2022-11-16T13:26:41.360Z,99514.22
2022-11-16T13:29:24.535Z,99517.91
2022-11-16T13:32:12.994Z,99516.03
2022-11-16T13:34:40.798Z,99517.47
2022-11-16T13:37:39.529Z,99516.59
2022-11-16T13:40:06.164Z,99516.53
2022-11-16T13:42:43.814Z,99509.13
2022-11-16T13:45:22.119Z,99514.38
2022-11-16T13:47:52.921Z,99505.53
2022-11-16T13:50:22.676Z,99502.91
2022-11-16T13:55:46.456Z,99493.66
2022-11-16T13:58:20.986Z,99500.88
2022-11-16T14:00:57.841Z,99496.63
2022-11-16T14:03:28.433Z,99502.31
2022-11-16T14:05:55.069Z,99506.28
2022-11-16T14:08:24.416Z,99507.28
2022-11-16T14:10:51.000Z,99501.53
2022-11-16T14:13:47.039Z,99505.06
2022-11-16T14:16:19.642Z,99506.44
2022-11-16T14:18:56.115Z,99503.44
2022-11-16T14:21:52.337Z,99492.25
2022-11-16T14:24:33.520Z,99502.09
2022-11-16T14:27:06.072Z,99491.38
2022-11-16T14:30:02.607Z,99498.25
2022-11-16T14:32:37.005Z,99496.31
2022-11-16T14:35:34.166Z,99490.78
2022-11-16T14:38:07.649Z,99495.66
2022-11-16T14:40:44.916Z,99498.19
2022-11-16T14:43:20.641Z,99503.88
2022-11-16T14:46:03.642Z,99498.25
2022-11-16T14:48:30.978Z,99490.56
2022-11-16T14:51:00.608Z,99490.06
2022-11-16T14:53:29.228Z,99489.91
2022-11-16T14:56:15.486Z,99484.28
2022-11-16T14:58:56.718Z,99493.75
2022-11-16T15:01:27.797Z,99488.88
2022-11-16T15:04:04.389Z,99484.63
2022-11-16T15:06:40.601Z,99482.63
2022-11-16T15:09:07.549Z,99486.72
2022-11-16T15:11:57.454Z,99492.72
2022-11-16T15:14:30.160Z,99479.81
2022-11-16T15:16:57.741Z,99485.47
2022-11-16T15:19:24.664Z,99480.75
2022-11-16T15:21:56.668Z,99478.06
2022-11-16T15:24:32.384Z,99478.72
2022-11-16T15:27:47.243Z,99477.34
2022-11-16T15:30:20.999Z,99484.56
2022-11-16T15:32:49.301Z,99480.31
2022-11-16T15:35:29.735Z,99483.16
2022-11-16T15:38:20.240Z,99483.19
2022-11-16T15:40:50.116Z,99486.34
2022-11-16T15:43:18.762Z,99482.19
2022-11-16T15:45:45.757Z,99490.19
2022-11-16T15:48:18.781Z,99471.75
2022-11-16T15:51:05.129Z,99478.88
2022-11-16T15:53:43.069Z,99477.97
2022-11-16T15:56:38.381Z,99489.25
2022-11-16T15:59:13.847Z,99474.91
2022-11-16T16:01:44.982Z,99471.47
2022-11-16T16:04:18.524Z,99470.19
2022-11-16T16:06:47.030Z,99473.22
2022-11-16T16:09:36.787Z,99472.06
2022-11-16T16:12:22.487Z,99467.28
2022-11-16T16:14:50.709Z,99484.09
2022-11-16T16:17:25.492Z,99471.88
2022-11-16T16:19:56.586Z,99472.78
2022-11-16T16:22:34.377Z,99472.66
2022-11-16T16:25:01.642Z,99471.28
2022-11-16T16:27:30.750Z,99473.13
2022-11-16T16:30:02.841Z,99474.53
2022-11-16T16:32:32.154Z,99477.94
2022-11-16T16:35:01.232Z,99479.91
2022-11-16T16:37:30.324Z,99480.84
2022-11-16T16:39:57.245Z,99482.63
2022-11-16T16:42:24.035Z,99487.56
2022-11-16T16:44:51.440Z,99492.06
2022-11-16T16:47:20.757Z,99490.19
2022-11-16T16:49:48.469Z,99495.75
2022-11-16T16:52:15.427Z,99494.66
2022-11-16T16:54:42.260Z,99488.00
2022-11-16T16:57:15.914Z,99485.84
2022-11-16T16:59:45.197Z,99501.19
2022-11-16T17:02:13.088Z,99491.88
2022-11-16T17:04:39.724Z,99489.75
2022-11-16T17:07:06.589Z,99499.81
2022-11-16T17:09:33.216Z,99501.03
2022-11-16T17:11:59.810Z,99494.50
2022-11-16T17:14:26.351Z,99504.03
2022-11-16T17:16:52.956Z,99507.13
2022-11-16T17:19:23.373Z,99507.41
2022-11-16T17:21:52.162Z,99509.63
2022-11-16T17:24:18.781Z,99507.03
2022-11-16T17:26:48.470Z,99513.78
2022-11-16T17:29:15.527Z,99508.25
2022-11-16T17:31:44.148Z,99504.66
2022-11-16T17:34:13.768Z,99504.81
2022-11-16T17:36:41.846Z,99516.50
2022-11-16T17:39:08.626Z,99516.78
2022-11-16T17:41:35.245Z,99513.72
2022-11-16T17:44:01.970Z,99515.94
2022-11-16T17:46:29.112Z,99517.06
2022-11-16T17:48:56.044Z,99507.94
2022-11-16T17:51:25.002Z,99509.03
2022-11-16T17:53:52.288Z,99514.69
2022-11-16T17:56:21.498Z,99520.84
2022-11-16T17:58:50.297Z,99513.94
2022-11-16T18:01:17.147Z,99524.72
2022-11-16T18:03:44.238Z,99530.00
2022-11-16T18:06:13.548Z,99527.03
2022-11-16T18:08:41.448Z,99527.88
2022-11-16T18:11:10.797Z,99519.44
2022-11-16T18:13:38.012Z,99521.09
2022-11-16T18:16:16.668Z,99517.06
2022-11-16T18:18:44.474Z,99517.28
2022-11-16T18:21:15.863Z,99531.41
2022-11-16T18:23:46.604Z,99526.59
2022-11-16T18:26:15.614Z,99534.56
2022-11-16T18:28:44.721Z,99541.25
2022-11-16T18:31:14.129Z,99538.69
2022-11-16T18:33:40.801Z,99533.38
2022-11-16T18:36:07.993Z,99534.56
2022-11-16T18:38:36.419Z,99529.59
2022-11-16T18:41:04.362Z,99533.00
2022-11-16T18:43:31.159Z,99523.03
2022-11-16T18:45:57.810Z,99515.38
2022-11-16T18:48:24.375Z,99510.94
2022-11-16T18:50:50.893Z,99513.22
2022-11-16T18:53:17.503Z,99503.84
2022-11-16T18:55:54.934Z,99509.59
2022-11-16T18:58:49.418Z,99510.88
2022-11-16T19:01:13.997Z,99509.22
2022-11-16T19:03:40.940Z,99506.81
2022-11-16T19:06:08.782Z,99506.38
2022-11-16T19:08:37.472Z,99501.84
2022-11-16T19:11:15.152Z,99504.06
2022-11-16T19:13:43.728Z,99502.53
2022-11-16T19:16:12.393Z,99511.06
2022-11-16T19:18:39.085Z,99501.69
2022-11-16T19:21:09.936Z,99507.81
2022-11-16T19:23:38.089Z,99497.19
2022-11-16T19:26:05.759Z,99497.56
2022-11-16T19:28:37.970Z,99500.69
2022-11-16T19:31:07.564Z,99494.31
2022-11-16T19:33:34.477Z,99492.91
2022-11-16T19:36:26.226Z,99494.00
2022-11-16T19:38:53.365Z,99503.69
2022-11-16T19:41:22.354Z,99499.16
2022-11-16T19:43:57.108Z,99502.13
2022-11-16T19:46:24.819Z,99498.28
2022-11-16T19:48:51.563Z,99497.41
2022-11-16T19:51:24.162Z,99505.19
2022-11-16T19:53:50.779Z,99494.72
2022-11-16T19:56:20.206Z,99501.28
2022-11-16T19:58:47.639Z,99498.44
2022-11-16T20:01:17.411Z,99499.91
2022-11-16T20:03:45.199Z,99503.41
2022-11-16T20:06:11.645Z,99507.94
2022-11-16T20:08:39.415Z,99508.38
2022-11-16T20:11:23.871Z,99506.81
2022-11-16T20:13:52.747Z,99503.41
2022-11-16T20:16:22.239Z,99495.22
2022-11-16T20:21:34.972Z,99490.91
2022-11-16T20:24:06.369Z,99496.50
2022-11-16T20:26:34.897Z,99499.00
2022-11-16T20:29:01.516Z,99486.91
2022-11-16T20:31:31.974Z,99489.47
2022-11-16T20:34:00.661Z,99484.91
2022-11-16T20:36:29.443Z,99482.22
2022-11-16T20:38:57.322Z,99488.31
2022-11-16T20:41:26.281Z,99484.41
2022-11-16T20:43:54.863Z,99489.88
2022-11-16T20:46:23.903Z,99491.16
2022-11-16T20:48:50.834Z,99496.56
2022-11-16T20:51:19.624Z,99494.56
2022-11-16T20:53:47.994Z,99492.38
2022-11-16T20:56:15.992Z,99489.75
2022-11-16T20:58:43.129Z,99493.88
2022-11-16T21:01:16.158Z,99488.63
2022-11-16T21:03:44.575Z,99482.78
2022-11-16T21:06:15.092Z,99479.78
2022-11-16T21:08:42.045Z,99486.03
2022-11-16T21:11:13.375Z,99483.09
2022-11-16T21:13:58.960Z,99472.66
2022-11-16T21:16:25.793Z,99471.41
2022-11-16T21:18:53.975Z,99476.16
2022-11-16T21:21:20.592Z,99474.38
2022-11-16T21:23:51.777Z,99483.75
2022-11-16T21:26:20.997Z,99474.16
2022-11-16T21:28:47.690Z,99481.44
2022-11-16T21:31:16.911Z,99478.94
2022-11-16T21:33:47.537Z,99475.81
2022-11-16T21:36:18.669Z,99476.13
2022-11-16T21:38:45.906Z,99479.50
2022-11-16T21:41:14.883Z,99484.06
2022-11-16T21:43:41.524Z,99490.97
2022-11-16T21:46:15.024Z,99490.56
2022-11-16T21:48:42.386Z,99498.78
2022-11-16T21:51:14.559Z,99492.25
2022-11-16T21:53:41.267Z,99499.66
2022-11-16T21:56:12.503Z,99504.16
2022-11-16T21:58:39.918Z,99496.25
2022-11-16T22:01:06.874Z,99493.53
2022-11-16T22:03:34.266Z,99497.84
2022-11-16T22:06:21.901Z,99491.38
2022-11-16T22:08:49.107Z,99491.13
2022-11-16T22:11:16.628Z,99496.13
2022-11-16T22:13:43.668Z,99486.31
2022-11-16T22:16:17.754Z,99494.66
2022-11-16T22:18:44.467Z,99493.38
2022-11-16T22:21:11.546Z,99483.75
2022-11-16T22:23:38.855Z,99484.38
2022-11-16T22:26:09.882Z,99484.72
2022-11-16T22:28:36.872Z,99484.41
2022-11-16T22:31:14.660Z,99487.44
2022-11-16T22:33:41.992Z,99491.03
2022-11-16T22:36:11.702Z,99494.25
2022-11-16T22:38:38.323Z,99492.44
2022-11-16T22:41:05.438Z,99481.63
2022-11-16T22:43:32.822Z,99488.88
2022-11-16T22:46:01.656Z,99484.13
2022-11-16T22:48:39.485Z,99478.97
2022-11-16T22:51:07.392Z,99488.00
2022-11-16T22:53:34.966Z,99479.03
2022-11-16T22:56:07.119Z,99480.94
2022-11-16T22:58:34.639Z,99479.31
2022-11-16T23:01:01.621Z,99466.81
2022-11-16T23:03:29.165Z,99465.00
2022-11-16T23:05:55.716Z,99453.25
2022-11-16T23:08:24.914Z,99455.59
2022-11-16T23:11:37.572Z,99450.78
2022-11-16T23:14:24.888Z,99454.09
2022-11-16T23:16:52.315Z,99444.63
2022-11-16T23:19:38.764Z,99441.84
2022-11-16T23:22:25.492Z,99427.34
2022-11-16T23:25:10.691Z,99414.25
2022-11-16T23:27:42.749Z,99413.91
2022-11-16T23:30:12.781Z,99398.63
2022-11-16T23:32:40.653Z,99395.19
2022-11-16T23:35:07.744Z,99383.84
2022-11-16T23:37:34.782Z,99384.59
2022-11-16T23:40:01.398Z,99379.84
2022-11-16T23:42:46.373Z,99378.34
2022-11-16T23:45:13.061Z,99384.50
2022-11-16T23:47:39.643Z,99392.81
2022-11-16T23:50:06.468Z,99395.19
2022-11-16T23:52:33.079Z,99392.59
2022-11-16T23:54:59.689Z,99401.91
2022-11-16T23:57:26.259Z,99399.03
2022-11-16T23:59:52.859Z,99402.50
